Time;durP1;ratioP1;P1;durP2;ratioP2;P2;SDS_P1;SDS_P2;PMS_P1;PMS_P2;Temp;Humidity;BMP_temperature;BMP_pressure;BME280_temperature;BME280_humidity;BME280_pressure;Samples;Min_cycle;Max_cycle;Signal;HPM_P1;HPM_P2
2023/10/06 00:00:46;;;;;;;;;;;;;;;20.05;61.09;97611.08;603744;235;67423;-69
2023/10/06 00:03:16;;;;;;;;;;;;;;;20.06;61.06;97603.88;603703;235;67017;-69
2023/10/06 00:05:44;;;;;;;;;;;;;;;20.05;61.07;97603.08;603740;235;64588;-69
2023/10/06 00:08:17;;;;;;;;;;;;;;;20.05;61.04;97592.41;603717;235;66937;-69
2023/10/06 00:10:44;;;;;;;;;;;;;;;20.04;61.03;97596.11;603645;235;66747;-69
2023/10/06 00:13:12;;;;;;;;;;;;;;;20.05;61.03;97602.25;603611;235;64832;-68
2023/10/06 00:15:40;;;;;;;;;;;;;;;20.06;61.01;97604.67;603565;235;65101;-69
2023/10/06 00:18:08;;;;;;;;;;;;;;;20.05;61.01;97600.41;603772;235;66988;-69
2023/10/06 00:20:42;;;;;;;;;;;;;;;20.04;60.99;97601.45;603755;235;62628;-69
2023/10/06 00:23:14;;;;;;;;;;;;;;;20.04;60.94;97609.45;603782;235;67028;-70
2023/10/06 00:25:42;;;;;;;;;;;;;;;20.05;60.98;97608.41;603666;235;67083;-67
2023/10/06 00:28:22;;;;;;;;;;;;;;;20.04;60.94;97612.12;603709;235;65439;-67
2023/10/06 00:30:56;;;;;;;;;;;;;;;20.04;60.94;97612.12;603790;235;67237;-67
2023/10/06 00:33:20;;;;;;;;;;;;;;;20.04;60.91;97606.78;598374;235;65420;-67
2023/10/06 00:35:48;;;;;;;;;;;;;;;20.03;60.92;97613.19;603755;235;62208;-67
2023/10/06 00:38:18;;;;;;;;;;;;;;;20.04;60.90;97611.31;603733;235;64602;-67
2023/10/06 00:40:52;;;;;;;;;;;;;;;20.03;60.93;97613.19;603755;235;67108;-67
2023/10/06 00:43:43;;;;;;;;;;;;;;;20.04;60.90;97622.79;603756;235;62842;-67
2023/10/06 00:46:10;;;;;;;;;;;;;;;20.03;60.89;97610.52;603375;235;64774;-66
2023/10/06 00:48:39;;;;;;;;;;;;;;;20.04;60.85;97612.12;603500;235;67074;-66
2023/10/06 00:51:28;;;;;;;;;;;;;;;20.04;60.86;97611.31;603743;235;62742;-66
2023/10/06 00:53:59;;;;;;;;;;;;;;;20.03;60.88;97610.52;603737;235;67379;-69
2023/10/06 00:56:30;;;;;;;;;;;;;;;20.03;60.83;97610.52;603765;235;66910;-69
2023/10/06 00:58:58;;;;;;;;;;;;;;;20.03;60.82;97607.85;603753;235;63520;-69
2023/10/06 01:01:26;;;;;;;;;;;;;;;20.02;60.80;97608.89;603730;235;67347;-69
2023/10/06 01:06:36;;;;;;;;;;;;;;;20.03;60.78;97604.38;595764;235;65399;-69
2023/10/06 01:11:45;;;;;;;;;;;;;;;20.02;60.75;97618.76;603713;235;64939;-69
2023/10/06 01:14:14;;;;;;;;;;;;;;;20.02;60.71;97614.22;602414;235;64678;-69
2023/10/06 01:16:42;;;;;;;;;;;;;;;20.03;60.70;97610.52;602229;235;67954;-69
2023/10/06 01:19:33;;;;;;;;;;;;;;;20.03;60.66;97623.06;602207;235;64718;-69
2023/10/06 01:21:58;;;;;;;;;;;;;;;20.02;60.68;97622.23;602170;235;62785;-69
2023/10/06 01:24:28;;;;;;;;;;;;;;;20.02;60.64;97610.75;601974;235;66958;-69
2023/10/06 01:27:00;;;;;;;;;;;;;;;20.02;60.59;97618.76;602219;235;64716;-69
2023/10/06 01:29:33;;;;;;;;;;;;;;;20.01;60.62;97623.30;602215;235;64712;-69
2023/10/06 01:31:58;;;;;;;;;;;;;;;20.02;60.60;97613.42;601983;235;65084;-69
2023/10/06 01:34:27;;;;;;;;;;;;;;;20.01;60.58;97623.30;602211;235;67803;-69
2023/10/06 01:36:54;;;;;;;;;;;;;;;20.00;60.59;97621.69;602198;235;62391;-69
2023/10/06 01:39:29;;;;;;;;;;;;;;;20.02;60.54;97624.09;602196;235;68141;-69
2023/10/06 01:41:54;;;;;;;;;;;;;;;20.02;60.52;97621.42;602106;235;67890;-70
2023/10/06 01:44:22;;;;;;;;;;;;;;;20.00;60.54;97627.03;602236;235;64592;-70
2023/10/06 01:46:53;;;;;;;;;;;;;;;20.01;60.51;97627.83;602209;235;67418;-70
2023/10/06 01:49:21;;;;;;;;;;;;;;;20.01;60.51;97633.16;602140;235;66929;-70
2023/10/06 01:51:53;;;;;;;;;;;;;;;20.01;60.47;97633.97;602219;235;62764;-70
2023/10/06 01:54:27;;;;;;;;;;;;;;;20.01;60.44;97633.16;602179;235;65000;-70
2023/10/06 01:56:52;;;;;;;;;;;;;;;20.01;60.44;97641.17;602007;235;65590;-70
2023/10/06 01:59:19;;;;;;;;;;;;;;;20.00;60.45;97635.03;602155;235;62452;-70
2023/10/06 02:01:47;;;;;;;;;;;;;;;20.00;60.41;97632.36;602175;235;64867;-70
2023/10/06 02:04:15;;;;;;;;;;;;;;;20.01;60.38;97641.97;602213;235;65013;-70
2023/10/06 02:06:48;;;;;;;;;;;;;;;20.01;60.38;97641.97;602220;235;65267;-70
2023/10/06 02:09:15;;;;;;;;;;;;;;;20.01;60.38;97635.83;601964;235;64595;-70
2023/10/06 02:11:45;;;;;;;;;;;;;;;20.00;60.36;97637.70;602233;235;67174;-70
2023/10/06 02:14:17;;;;;;;;;;;;;;;20.00;60.42;97640.37;603477;233;64777;-70
2023/10/06 02:16:44;;;;;;;;;;;;;;;20.00;60.37;97637.70;603663;235;67269;-70
2023/10/06 02:19:21;;;;;;;;;;;;;;;20.00;60.38;97643.03;603738;235;67353;-70
2023/10/06 02:21:49;;;;;;;;;;;;;;;20.00;60.37;97640.37;603062;235;64883;-70
2023/10/06 02:24:20;;;;;;;;;;;;;;;20.00;60.36;97643.03;603730;235;67105;-69
2023/10/06 02:26:57;;;;;;;;;;;;;;;20.00;60.42;97647.54;603715;235;67944;-69
2023/10/06 02:29:22;;;;;;;;;;;;;;;20.00;60.41;97643.03;603552;235;64978;-69
2023/10/06 02:31:49;;;;;;;;;;;;;;;19.99;60.35;97644.07;603693;235;67098;-69
2023/10/06 02:34:29;;;;;;;;;;;;;;;20.00;60.38;97639.53;603751;235;66909;-69
2023/10/06 02:36:57;;;;;;;;;;;;;;;20.00;60.36;97636.87;603780;235;62469;-69
2023/10/06 02:39:28;;;;;;;;;;;;;;;19.99;60.39;97636.06;603718;235;66589;-69
2023/10/06 02:42:01;;;;;;;;;;;;;;;19.99;60.37;97640.60;603691;235;66691;-69
2023/10/06 02:44:30;;;;;;;;;;;;;;;19.99;60.38;97638.73;603745;235;62393;-69
2023/10/06 02:47:04;;;;;;;;;;;;;;;19.99;60.35;97643.27;603726;235;65699;-69
2023/10/06 02:49:35;;;;;;;;;;;;;;;19.99;60.35;97636.06;603619;235;64452;-69
2023/10/06 02:55:55;;;;;;;;;;;;;;;19.99;60.36;97629.94;603764;235;66893;-69
2023/10/06 02:57:26;;;;;;;;;;;;;;;19.98;60.32;97626.46;598787;235;66700;-70
2023/10/06 03:00:28;;;;;;;;;;;;;;;19.98;60.34;97631.80;603740;235;63249;-68
2023/10/06 03:02:26;;;;;;;;;;;;;;;19.98;60.34;97634.47;602791;235;66105;-68
2023/10/06 03:05:10;;;;;;;;;;;;;;;19.99;60.36;97629.94;603756;235;66771;-68
2023/10/06 03:07:22;;;;;;;;;;;;;;;19.99;60.36;97640.60;602991;235;63163;-68
2023/10/06 03:09:50;;;;;;;;;;;;;;;19.98;60.35;97637.13;603703;235;67333;-70
2023/10/06 03:15:01;;;;;;;;;;;;;;;19.99;60.36;97635.27;602369;234;65579;-71
2023/10/06 03:17:30;;;;;;;;;;;;;;;19.98;60.33;97631.00;604752;234;65051;-70
2023/10/06 03:20:18;;;;;;;;;;;;;;;19.96;60.33;97632.03;605105;234;67082;-70
2023/10/06 03:22:45;;;;;;;;;;;;;;;19.98;60.38;97636.33;604807;234;64881;-70
2023/10/06 03:25:17;;;;;;;;;;;;;;;19.98;60.37;97639.00;605025;234;65880;-70
2023/10/06 03:27:52;;;;;;;;;;;;;;;19.97;60.39;97632.87;605049;234;64344;-70
2023/10/06 03:30:27;;;;;;;;;;;;;;;19.98;60.44;97639.80;604581;234;64928;-69
2023/10/06 03:32:49;;;;;;;;;;;;;;;19.98;60.42;97641.67;604785;234;67540;-68
2023/10/06 03:38:27;;;;;;;;;;;;;;;19.98;60.46;97644.34;605123;234;64719;-65
2023/10/06 03:43:33;;;;;;;;;;;;;;;19.97;60.47;97643.53;605118;234;67101;-66
2023/10/06 03:45:47;;;;;;;;;;;;;;;19.97;60.48;97643.53;604172;234;64584;-66
2023/10/06 03:48:19;;;;;;;;;;;;;;;19.96;60.48;97648.05;605086;234;65033;-66
2023/10/06 03:50:45;;;;;;;;;;;;;;;19.97;60.51;97648.88;605025;234;64902;-66
2023/10/06 03:53:14;;;;;;;;;;;;;;;19.96;60.50;97650.70;605151;234;64725;-66
2023/10/06 03:55:43;;;;;;;;;;;;;;;19.97;60.51;97648.88;605131;234;67021;-66
2023/10/06 03:58:13;;;;;;;;;;;;;;;19.96;60.50;97649.91;605103;234;67163;-66
2023/10/06 04:00:47;;;;;;;;;;;;;;;19.96;60.52;97652.58;605052;234;62475;-66
2023/10/06 04:03:13;;;;;;;;;;;;;;;19.95;60.57;97648.30;604864;234;65166;-66
2023/10/06 04:05:41;;;;;;;;;;;;;;;19.94;60.50;97650.17;605049;234;64838;-66
2023/10/06 04:08:11;;;;;;;;;;;;;;;19.95;60.57;97650.97;605093;234;64883;-66
2023/10/06 04:10:40;;;;;;;;;;;;;;;19.95;60.56;97648.30;605021;234;67029;-66
2023/10/06 04:13:08;;;;;;;;;;;;;;;19.96;60.56;97652.58;605397;234;66970;-66
2023/10/06 04:15:38;;;;;;;;;;;;;;;19.96;60.58;97652.58;606018;234;62776;-66
2023/10/06 04:18:09;;;;;;;;;;;;;;;19.96;60.57;97650.70;606066;234;64524;-66
2023/10/06 04:20:35;;;;;;;;;;;;;;;19.95;60.59;97650.97;605920;234;67100;-68
2023/10/06 04:23:04;;;;;;;;;;;;;;;19.96;60.59;97652.58;606007;234;65530;-68
2023/10/06 04:25:37;;;;;;;;;;;;;;;19.95;60.67;97656.31;605986;234;65759;-69
2023/10/06 04:28:01;;;;;;;;;;;;;;;19.95;60.64;97656.31;605838;234;65701;-69
2023/10/06 04:30:29;;;;;;;;;;;;;;;19.96;60.61;97657.91;606008;234;63407;-66
2023/10/06 04:32:57;;;;;;;;;;;;;;;19.94;60.62;97654.68;605995;234;67094;-66
2023/10/06 04:35:26;;;;;;;;;;;;;;;19.96;60.64;97661.37;606011;234;66885;-66
2023/10/06 04:37:55;;;;;;;;;;;;;;;19.96;60.64;97665.91;605999;234;64605;-66
2023/10/06 04:40:23;;;;;;;;;;;;;;;19.96;60.65;97665.91;606000;234;67063;-66
2023/10/06 04:42:51;;;;;;;;;;;;;;;19.94;60.63;97663.52;606017;234;64382;-66
2023/10/06 04:45:18;;;;;;;;;;;;;;;19.94;60.62;97666.18;605996;234;62439;-66
2023/10/06 04:47:46;;;;;;;;;;;;;;;19.94;60.63;97660.84;605981;234;64848;-66
2023/10/06 04:50:15;;;;;;;;;;;;;;;19.95;60.65;97666.98;605947;234;65314;-66
2023/10/06 04:52:44;;;;;;;;;;;;;;;19.94;60.67;97666.18;606004;234;62444;-66
2023/10/06 04:55:11;;;;;;;;;;;;;;;19.96;60.64;97673.92;606008;234;67207;-66
2023/10/06 04:57:40;;;;;;;;;;;;;;;19.96;60.68;97676.59;606010;234;67078;-66
2023/10/06 05:00:27;;;;;;;;;;;;;;;19.95;60.68;97674.98;606035;234;62420;-65
2023/10/06 05:02:50;;;;;;;;;;;;;;;19.95;60.67;97682.98;605534;234;67281;-66
2023/10/06 05:05:20;;;;;;;;;;;;;;;19.94;60.70;97679.52;605932;234;64869;-66
2023/10/06 05:07:51;;;;;;;;;;;;;;;19.94;60.71;97679.52;606070;234;63641;-65
2023/10/06 05:10:21;;;;;;;;;;;;;;;19.94;60.75;97684.86;606007;234;64912;-65
2023/10/06 05:12:51;;;;;;;;;;;;;;;19.94;60.76;97690.19;605055;234;64843;-66
2023/10/06 05:15:26;;;;;;;;;;;;;;;19.94;60.76;97692.02;602626;235;63411;-66
2023/10/06 05:17:58;;;;;;;;;;;;;;;19.94;60.78;97698.19;602623;235;68555;-65
2023/10/06 05:20:29;;;;;;;;;;;;;;;19.94;60.83;97706.20;602657;235;65017;-65
2023/10/06 05:23:11;;;;;;;;;;;;;;;19.94;60.83;97700.03;602642;235;64587;-65
2023/10/06 05:25:39;;;;;;;;;;;;;;;19.94;60.85;97702.70;602627;235;67243;-65
2023/10/06 05:28:10;;;;;;;;;;;;;;;19.93;60.84;97711.77;602627;235;67142;-65
2023/10/06 05:30:36;;;;;;;;;;;;;;;19.93;60.84;97703.76;602530;235;64617;-66
2023/10/06 05:33:05;;;;;;;;;;;;;;;19.93;60.86;97712.56;602655;235;67243;-65
2023/10/06 05:35:43;;;;;;;;;;;;;;;19.93;60.88;97711.77;602650;235;67107;-65
2023/10/06 05:38:13;;;;;;;;;;;;;;;19.93;60.89;97719.77;602257;235;62826;-68
2023/10/06 05:40:36;;;;;;;;;;;;;;;19.93;60.90;97717.09;602231;235;64855;-69
2023/10/06 05:43:04;;;;;;;;;;;;;;;19.93;60.93;97722.44;602581;235;64955;-69
2023/10/06 05:45:32;;;;;;;;;;;;;;;19.93;60.94;97728.57;602625;235;62713;-69
2023/10/06 05:48:06;;;;;;;;;;;;;;;19.93;60.98;97733.11;602623;235;67323;-69
2023/10/06 05:50:28;;;;;;;;;;;;;;;19.93;60.96;97733.11;602379;235;67102;-68
2023/10/06 05:52:59;;;;;;;;;;;;;;;19.93;60.96;97733.11;602593;235;64735;-69
2023/10/06 05:55:30;;;;;;;;;;;;;;;19.93;60.94;97730.44;602549;235;64838;-68
2023/10/06 05:58:00;;;;;;;;;;;;;;;19.93;60.97;97733.91;602643;235;64702;-69
2023/10/06 06:00:31;;;;;;;;;;;;;;;19.92;60.99;97740.30;602607;235;62630;-70
2023/10/06 06:03:09;;;;;;;;;;;;;;;19.93;60.95;97733.11;602644;235;64517;-70
2023/10/06 06:05:29;;;;;;;;;;;;;;;19.92;60.98;97737.64;602160;235;65111;-69
2023/10/06 06:07:59;;;;;;;;;;;;;;;19.93;61.02;97743.78;602543;235;64840;-70
2023/10/06 06:10:30;;;;;;;;;;;;;;;19.92;61.00;97748.31;602292;235;65112;-69
2023/10/06 06:13:00;;;;;;;;;;;;;;;19.93;61.04;97757.11;603597;234;64704;-70
2023/10/06 06:15:27;;;;;;;;;;;;;;;19.91;61.26;97746.67;605307;234;64848;-70
2023/10/06 06:17:55;;;;;;;;;;;;;;;19.92;61.26;97752.84;605977;234;67026;-72
2023/10/06 06:20:22;;;;;;;;;;;;;;;19.91;61.22;97740.54;605962;234;66964;-70
2023/10/06 06:22:59;;;;;;;;;;;;;;;19.91;61.34;97749.34;610332;232;64572;-69
2023/10/06 06:25:26;;;;;;;;;;;;;;;19.91;61.48;97745.87;611175;232;66769;-70
2023/10/06 06:27:54;;;;;;;;;;;;;;;19.91;63.03;97748.55;611310;232;65080;-70
2023/10/06 06:30:23;;;;;;;;;;;;;;;19.90;63.06;97754.94;611207;232;64770;-70
2023/10/06 06:32:52;;;;;;;;;;;;;;;19.89;61.81;97754.14;611319;232;65325;-71
2023/10/06 06:35:21;;;;;;;;;;;;;;;19.88;61.27;97751.70;611337;232;65064;-69
2023/10/06 06:37:59;;;;;;;;;;;;;;;19.88;61.33;97755.17;611291;232;64790;-69
2023/10/06 06:40:22;;;;;;;;;;;;;;;19.89;61.80;97759.48;611179;231;65027;-69
2023/10/06 06:42:55;;;;;;;;;;;;;;;19.88;62.34;97757.84;611368;232;64948;-69
2023/10/06 06:45:20;;;;;;;;;;;;;;;19.88;62.90;97763.17;611033;232;62514;-69
2023/10/06 06:47:48;;;;;;;;;;;;;;;19.88;62.13;97759.70;611391;232;64582;-68
2023/10/06 06:50:18;;;;;;;;;;;;;;;19.88;65.37;97762.38;611330;232;66652;-69
2023/10/06 06:52:47;;;;;;;;;;;;;;;19.85;61.70;97760.20;611387;232;62529;-70
2023/10/06 06:55:14;;;;;;;;;;;;;;;19.86;61.19;97764.47;611343;232;66756;-71
2023/10/06 06:57:45;;;;;;;;;;;;;;;19.86;60.94;97761.80;611297;232;64331;-71
2023/10/06 07:00:17;;;;;;;;;;;;;;;19.86;61.10;97767.14;611373;232;62545;-72
2023/10/06 07:02:50;;;;;;;;;;;;;;;19.87;61.75;97766.91;611397;232;64573;-71
2023/10/06 07:05:18;;;;;;;;;;;;;;;19.88;62.06;97773.84;611335;232;66974;-64
2023/10/06 07:07:47;;;;;;;;;;;;;;;19.89;62.52;97764.01;611334;232;64552;-63
2023/10/06 07:10:19;;;;;;;;;;;;;;;19.88;62.22;97771.18;611322;232;66776;-64
2023/10/06 07:12:45;;;;;;;;;;;;;;;19.89;62.11;97770.14;610199;232;64633;-65
2023/10/06 07:15:15;;;;;;;;;;;;;;;19.88;61.43;97773.84;607218;233;65049;-63
2023/10/06 07:17:47;;;;;;;;;;;;;;;19.89;61.03;97778.14;607225;233;68133;-64
2023/10/06 07:20:16;;;;;;;;;;;;;;;19.89;61.59;97775.48;607167;233;67559;-64
2023/10/06 07:22:47;;;;;;;;;;;;;;;19.90;62.57;97769.08;607179;233;62413;-65
2023/10/06 07:25:18;;;;;;;;;;;;;;;19.90;61.20;97776.28;607285;233;67248;-64
2023/10/06 07:27:46;;;;;;;;;;;;;;;19.91;60.78;97775.22;607179;233;65590;-65
2023/10/06 07:30:22;;;;;;;;;;;;;;;19.91;60.83;97772.55;607216;233;64837;-66
2023/10/06 07:32:46;;;;;;;;;;;;;;;19.91;60.99;97768.02;607173;233;67056;-64
2023/10/06 07:35:30;;;;;;;;;;;;;;;19.91;60.95;97769.88;607168;233;65553;-64
2023/10/06 07:37:51;;;;;;;;;;;;;;;19.92;60.88;97774.98;606921;233;64796;-64
2023/10/06 07:40:19;;;;;;;;;;;;;;;19.92;60.79;97774.19;607209;233;64442;-65
2023/10/06 07:42:48;;;;;;;;;;;;;;;19.93;61.00;97767.78;607245;233;67106;-65
2023/10/06 07:45:17;;;;;;;;;;;;;;;19.92;60.83;97779.52;607243;233;62619;-66
2023/10/06 07:47:45;;;;;;;;;;;;;;;19.93;60.88;97781.13;607128;233;68180;-65
2023/10/06 07:50:14;;;;;;;;;;;;;;;19.93;60.69;97776.59;607232;233;66921;-67
2023/10/06 07:52:42;;;;;;;;;;;;;;;19.99;61.23;97779.33;607246;233;64845;-66
2023/10/06 07:55:11;;;;;;;;;;;;;;;19.98;61.19;97775.06;607161;233;66846;-66
2023/10/06 07:57:48;;;;;;;;;;;;;;;19.96;60.90;97785.97;607195;233;66731;-66
2023/10/06 08:00:21;;;;;;;;;;;;;;;19.96;60.92;97781.44;606899;233;64915;-66
2023/10/06 08:02:43;;;;;;;;;;;;;;;19.97;60.98;97787.60;595963;233;67262;-65
2023/10/06 08:05:11;;;;;;;;;;;;;;;19.96;61.01;97778.77;588879;238;66944;-67
2023/10/06 08:07:42;;;;;;;;;;;;;;;19.97;62.83;97787.60;588866;238;62707;-65
2023/10/06 08:10:15;;;;;;;;;;;;;;;19.98;64.76;97789.20;588745;238;64410;-65
2023/10/06 08:12:44;;;;;;;;;;;;;;;19.95;61.41;97784.36;590307;238;65186;-65
2023/10/06 08:15:18;;;;;;;;;;;;;;;19.96;61.28;97788.63;602325;235;64898;-65
2023/10/06 08:17:46;;;;;;;;;;;;;;;19.96;61.21;97786.77;595403;237;65101;-67
2023/10/06 08:20:15;;;;;;;;;;;;;;;19.97;61.19;97787.60;602438;235;64786;-67
2023/10/06 08:22:49;;;;;;;;;;;;;;;19.97;61.28;97784.93;595501;237;64868;-67
2023/10/06 08:25:14;;;;;;;;;;;;;;;19.96;61.27;97781.44;591437;239;67089;-68
2023/10/06 08:27:42;;;;;;;;;;;;;;;19.96;61.25;97780.63;602419;234;64559;-66
2023/10/06 08:30:16;;;;;;;;;;;;;;;19.97;61.19;97787.60;595395;238;62649;-67
2023/10/06 08:32:44;;;;;;;;;;;;;;;19.97;61.13;97776.93;602404;235;67096;-65
2023/10/06 08:35:15;;;;;;;;;;;;;;;19.98;61.12;97775.06;595506;238;64813;-65
2023/10/06 08:37:43;;;;;;;;;;;;;;;19.96;61.16;97773.42;602357;234;64743;-65
2023/10/06 08:40:19;;;;;;;;;;;;;;;19.97;61.13;97771.59;595545;238;65202;-65
2023/10/06 08:42:53;;;;;;;;;;;;;;;19.98;61.23;97767.86;602459;235;64576;-67
2023/10/06 08:45:22;;;;;;;;;;;;;;;19.98;61.21;97767.06;595363;237;65472;-67
2023/10/06 08:47:51;;;;;;;;;;;;;;;19.98;61.05;97775.86;602206;233;68182;-68
2023/10/06 08:50:24;;;;;;;;;;;;;;;19.99;60.90;97772.13;595485;238;66885;-68
2023/10/06 08:52:52;;;;;;;;;;;;;;;19.99;61.00;97764.12;602415;234;62553;-68
2023/10/06 08:55:21;;;;;;;;;;;;;;;19.99;61.00;97764.12;595534;237;66974;-68
2023/10/06 08:57:50;;;;;;;;;;;;;;;19.99;61.13;97764.12;602329;235;67678;-68
2023/10/06 09:00:18;;;;;;;;;;;;;;;20.00;61.47;97760.42;595440;237;64735;-68
2023/10/06 09:02:47;;;;;;;;;;;;;;;20.00;61.50;97759.59;602412;235;68175;-67
2023/10/06 09:05:15;;;;;;;;;;;;;;;19.99;61.32;97753.45;595495;238;64836;-67
2023/10/06 09:07:58;;;;;;;;;;;;;;;20.00;61.53;97748.92;602372;235;62354;-67
2023/10/06 09:10:30;;;;;;;;;;;;;;;20.00;61.37;97743.58;593202;238;64865;-68
2023/10/06 09:13:08;;;;;;;;;;;;;;;20.00;61.28;97746.25;598466;234;67170;-72
2023/10/06 09:15:36;;;;;;;;;;;;;;;20.00;61.34;97749.75;604310;234;63500;-64
2023/10/06 09:18:20;;;;;;;;;;;;;;;20.00;61.77;97743.58;604452;234;67069;-67
2023/10/06 09:20:48;;;;;;;;;;;;;;;20.00;62.12;97740.92;602438;234;65594;-69
2023/10/06 09:23:27;;;;;;;;;;;;;;;19.99;61.26;97736.64;602436;234;62456;-65
2023/10/06 09:25:55;;;;;;;;;;;;;;;19.99;61.04;97732.11;600560;234;67071;-68
2023/10/06 09:28:22;;;;;;;;;;;;;;;20.00;62.71;97731.08;604549;234;67271;-67
2023/10/06 09:30:51;;;;;;;;;;;;;;;20.00;64.48;97733.75;604989;234;64543;-67
2023/10/06 09:33:18;;;;;;;;;;;;;;;19.99;63.12;97732.11;605144;234;67151;-70
2023/10/06 09:35:46;;;;;;;;;;;;;;;19.99;63.39;97732.11;604413;234;66917;-74
2023/10/06 09:38:15;;;;;;;;;;;;;;;19.98;63.79;97725.17;604404;234;62519;-72
2023/10/06 09:40:47;;;;;;;;;;;;;;;19.99;62.59;97733.98;604502;234;67264;-71
2023/10/06 09:43:15;;;;;;;;;;;;;;;19.99;63.78;97726.78;603989;234;66743;-71
2023/10/06 09:45:43;;;;;;;;;;;;;;;19.99;65.59;97732.11;604390;234;62395;-71
2023/10/06 09:48:20;;;;;;;;;;;;;;;19.99;64.45;97725.97;604313;234;67353;-71
2023/10/06 09:50:46;;;;;;;;;;;;;;;19.98;65.49;97725.17;604201;234;65055;-71
2023/10/06 09:53:15;;;;;;;;;;;;;;;19.99;65.26;97725.97;605008;234;64564;-72
2023/10/06 09:55:43;;;;;;;;;;;;;;;19.97;64.45;97723.57;604945;234;67250;-72
2023/10/06 09:58:11;;;;;;;;;;;;;;;19.98;63.75;97722.51;604582;234;64919;-72
2023/10/06 10:00:39;;;;;;;;;;;;;;;19.98;63.45;97713.70;604626;234;65131;-72
2023/10/06 10:03:12;;;;;;;;;;;;;;;19.98;63.67;97709.16;604680;234;67146;-71
2023/10/06 10:05:38;;;;;;;;;;;;;;;19.99;63.80;97707.30;604588;234;67127;-71
2023/10/06 10:08:13;;;;;;;;;;;;;;;19.98;62.68;97709.16;604433;234;62420;-71
2023/10/06 10:10:36;;;;;;;;;;;;;;;19.98;63.09;97703.03;604130;234;66813;-71
2023/10/06 10:13:09;;;;;;;;;;;;;;;19.98;62.40;97708.36;604859;234;66741;-71
2023/10/06 10:15:47;;;;;;;;;;;;;;;19.98;62.66;97698.49;604553;234;64369;-71
2023/10/06 10:18:16;;;;;;;;;;;;;;;19.99;61.72;97696.63;604561;234;67489;-71
2023/10/06 10:20:46;;;;;;;;;;;;;;;19.98;61.73;97687.82;605115;234;64926;-71
2023/10/06 10:23:18;;;;;;;;;;;;;;;19.99;61.23;97683.29;605127;234;62315;-71
2023/10/06 10:25:46;;;;;;;;;;;;;;;20.00;61.92;97684.89;605053;234;64921;-72
2023/10/06 10:28:14;;;;;;;;;;;;;;;19.98;61.13;97682.48;605085;234;66990;-70
2023/10/06 10:30:49;;;;;;;;;;;;;;;19.98;61.22;97677.15;604678;234;64709;-71
2023/10/06 10:33:21;;;;;;;;;;;;;;;19.99;61.10;97670.75;604146;234;67332;-71
2023/10/06 10:35:59;;;;;;;;;;;;;;;19.99;60.88;97668.08;604492;234;67101;-71
2023/10/06 10:38:27;;;;;;;;;;;;;;;20.01;60.73;97670.52;598991;234;64741;-71
2023/10/06 10:40:56;;;;;;;;;;;;;;;20.00;60.88;97663.55;604589;234;67077;-70
2023/10/06 10:43:23;;;;;;;;;;;;;;;20.00;60.80;97666.22;605100;234;66958;-69
2023/10/06 10:45:53;;;;;;;;;;;;;;;20.00;60.65;97652.87;605029;234;64560;-71
2023/10/06 10:48:22;;;;;;;;;;;;;;;20.00;60.45;97658.21;604968;234;67259;-71
2023/10/06 10:51:05;;;;;;;;;;;;;;;20.00;60.20;97648.38;604620;234;67284;-71
2023/10/06 10:53:34;;;;;;;;;;;;;;;20.00;60.23;97648.38;594827;234;65203;-70
2023/10/06 10:56:02;;;;;;;;;;;;;;;20.01;60.07;97644.64;604603;234;68425;-71
2023/10/06 10:58:49;;;;;;;;;;;;;;;20.02;60.14;97646.23;604379;234;64152;-70
2023/10/06 11:01:24;;;;;;;;;;;;;;;20.02;60.23;97637.44;604240;234;64628;-73
2023/10/06 11:04:18;;;;;;;;;;;;;;;20.02;59.84;97634.77;603761;234;64566;-71
2023/10/06 11:06:44;;;;;;;;;;;;;;;20.02;59.96;97635.56;604687;234;65891;-71
2023/10/06 11:09:21;;;;;;;;;;;;;;;20.02;60.33;97630.23;597357;237;64983;-71
2023/10/06 11:11:42;;;;;;;;;;;;;;;20.02;60.25;97627.56;605394;234;66932;-71
2023/10/06 11:14:11;;;;;;;;;;;;;;;20.03;60.24;97633.73;604595;234;66868;-71
2023/10/06 11:16:40;;;;;;;;;;;;;;;20.01;60.26;97628.63;596238;238;64757;-71
2023/10/06 11:19:09;;;;;;;;;;;;;;;20.02;60.25;97630.23;589633;240;66935;-71
2023/10/06 11:21:37;;;;;;;;;;;;;;;20.02;60.40;97632.09;595419;237;66837;-71
2023/10/06 11:24:05;;;;;;;;;;;;;;;20.02;60.24;97624.89;596989;237;64914;-71
2023/10/06 11:26:32;;;;;;;;;;;;;;;20.02;59.74;97629.43;604512;234;64551;-70
2023/10/06 11:29:00;;;;;;;;;;;;;;;20.02;59.57;97622.23;604479;234;65717;-70
2023/10/06 11:31:30;;;;;;;;;;;;;;;20.03;59.71;97623.06;604458;234;62469;-71
2023/10/06 11:33:59;;;;;;;;;;;;;;;20.03;59.55;97621.19;604478;234;65139;-71
2023/10/06 11:36:27;;;;;;;;;;;;;;;20.04;59.45;97621.98;604460;234;67392;-72
2023/10/06 11:38:55;;;;;;;;;;;;;;;20.04;59.52;97617.45;604503;234;64657;-72
2023/10/06 11:41:24;;;;;;;;;;;;;;;20.04;59.55;97621.98;604559;234;67124;-71
2023/10/06 11:43:55;;;;;;;;;;;;;;;20.04;59.52;97617.45;604234;234;64903;-72
2023/10/06 11:46:23;;;;;;;;;;;;;;;20.05;59.51;97624.42;604533;234;62579;-72
2023/10/06 11:48:53;;;;;;;;;;;;;;;20.05;59.58;97618.25;604584;234;64817;-73
2023/10/06 11:51:19;;;;;;;;;;;;;;;20.05;59.57;97624.42;604461;234;64721;-71
2023/10/06 11:53:47;;;;;;;;;;;;;;;20.05;59.63;97616.42;604511;234;62461;-72
2023/10/06 11:56:15;;;;;;;;;;;;;;;20.06;59.63;97627.89;604516;234;64755;-71
2023/10/06 11:58:44;;;;;;;;;;;;;;;20.06;59.78;97625.22;604513;234;67879;-72
2023/10/06 12:01:36;;;;;;;;;;;;;;;20.05;59.83;97619.09;604527;234;64764;-73
2023/10/06 12:04:07;;;;;;;;;;;;;;;20.05;59.70;97619.09;604426;234;67084;-71
2023/10/06 12:06:42;;;;;;;;;;;;;;;20.06;59.66;97630.55;604488;234;66843;-72
2023/10/06 12:09:13;;;;;;;;;;;;;;;20.06;59.50;97619.89;604390;234;64493;-70
2023/10/06 12:11:41;;;;;;;;;;;;;;;20.05;59.55;97624.42;604465;234;64932;-69
2023/10/06 12:14:10;;;;;;;;;;;;;;;20.06;59.44;97615.34;604510;234;66819;-68
2023/10/06 12:16:37;;;;;;;;;;;;;;;20.06;59.39;97626.02;604478;234;62445;-69
2023/10/06 12:19:05;;;;;;;;;;;;;;;20.06;59.32;97614.55;604507;234;64910;-70
2023/10/06 12:21:33;;;;;;;;;;;;;;;20.06;59.24;97614.55;604520;234;67435;-69
2023/10/06 12:24:00;;;;;;;;;;;;;;;20.05;59.17;97619.09;604484;234;62355;-70
2023/10/06 12:26:28;;;;;;;;;;;;;;;20.07;59.07;97627.62;604474;234;64909;-71
2023/10/06 12:28:58;;;;;;;;;;;;;;;20.07;59.04;97626.83;604490;234;66869;-72
2023/10/06 12:31:26;;;;;;;;;;;;;;;20.07;59.02;97632.96;604552;234;62502;-70
2023/10/06 12:33:55;;;;;;;;;;;;;;;20.07;59.07;97629.49;604433;234;67216;-67
2023/10/06 12:36:22;;;;;;;;;;;;;;;20.07;59.00;97630.29;604538;234;65383;-67
2023/10/06 12:38:50;;;;;;;;;;;;;;;20.07;59.06;97622.29;604541;234;64755;-66
2023/10/06 12:41:17;;;;;;;;;;;;;;;20.08;59.07;97629.25;604456;234;66998;-66
2023/10/06 12:43:47;;;;;;;;;;;;;;;20.08;59.07;97631.09;604505;234;67032;-67
2023/10/06 12:46:14;;;;;;;;;;;;;;;20.08;59.07;97623.09;604477;234;64595;-68
2023/10/06 12:48:42;;;;;;;;;;;;;;;20.08;59.02;97629.25;604506;234;68556;-68
2023/10/06 12:51:12;;;;;;;;;;;;;;;20.09;58.97;97630.05;604554;234;66770;-67
2023/10/06 12:53:39;;;;;;;;;;;;;;;20.08;58.92;97629.25;604473;234;64700;-67
2023/10/06 12:56:07;;;;;;;;;;;;;;;20.08;58.86;97617.75;604474;234;67586;-68
2023/10/06 12:58:35;;;;;;;;;;;;;;;20.09;58.79;97622.05;604505;234;66860;-68
2023/10/06 13:01:07;;;;;;;;;;;;;;;20.09;58.71;97632.72;604440;234;64258;-68
2023/10/06 13:03:33;;;;;;;;;;;;;;;20.09;58.68;97622.85;604337;234;67877;-68
2023/10/06 13:06:03;;;;;;;;;;;;;;;20.09;58.64;97622.85;604468;234;66984;-68
2023/10/06 13:08:30;;;;;;;;;;;;;;;20.09;58.64;97617.52;604400;234;64596;-65
2023/10/06 13:10:57;;;;;;;;;;;;;;;20.09;58.62;97619.38;604488;234;67852;-66
2023/10/06 13:13:25;;;;;;;;;;;;;;;20.09;58.61;97624.72;603308;234;66843;-66
2023/10/06 13:15:52;;;;;;;;;;;;;;;20.10;58.58;97607.64;602167;235;64829;-66
2023/10/06 13:18:22;;;;;;;;;;;;;;;20.11;58.57;97622.61;602269;235;64736;-67